Map

Track Data

SID SEASON NUMBER BASIN SUBBASIN NAME ISO_TIME NATURE LAT LON WMO_WIND WMO_PRES WMO_AGENCY TRACK_TYPE DIST2LAND LANDFALL IFLAG USA_AGENCY USA_ATCF_ID USA_LAT USA_LON USA_RECORD USA_STATUS USA_WIND USA_PRES USA_SSHS USA_R34_NE USA_R34_SE USA_R34_SW USA_R34_NW USA_R50_NE USA_R50_SE USA_R50_SW USA_R50_NW USA_R64_NE USA_R64_SE USA_R64_SW USA_R64_NW USA_POCI USA_ROCI USA_RMW USA_EYE TOKYO_LAT TOKYO_LON TOKYO_GRADE TOKYO_WIND TOKYO_PRES TOKYO_R50_DIR TOKYO_R50_LONG TOKYO_R50_SHORT TOKYO_R30_DIR TOKYO_R30_LONG TOKYO_R30_SHORT TOKYO_LAND CMA_LAT CMA_LON CMA_CAT CMA_WIND CMA_PRES HKO_LAT HKO_LON HKO_CAT HKO_WIND HKO_PRES NEWDELHI_LAT NEWDELHI_LON NEWDELHI_GRADE NEWDELHI_WIND NEWDELHI_PRES NEWDELHI_CI NEWDELHI_DP NEWDELHI_POCI REUNION_LAT REUNION_LON REUNION_TYPE REUNION_WIND REUNION_PRES REUNION_TNUM REUNION_CI REUNION_RMW REUNION_R34_NE REUNION_R34_SE REUNION_R34_SW REUNION_R34_NW REUNION_R50_NE REUNION_R50_SE REUNION_R50_SW REUNION_R50_NW REUNION_R64_NE REUNION_R64_SE REUNION_R64_SW REUNION_R64_NW BOM_LAT BOM_LON BOM_TYPE BOM_WIND BOM_PRES BOM_TNUM BOM_CI BOM_RMW BOM_R34_NE BOM_R34_SE BOM_R34_SW BOM_R34_NW BOM_R50_NE BOM_R50_SE BOM_R50_SW BOM_R50_NW BOM_R64_NE BOM_R64_SE BOM_R64_SW BOM_R64_NW BOM_ROCI BOM_POCI BOM_EYE BOM_POS_METHOD BOM_PRES_METHOD NADI_LAT NADI_LON NADI_CAT NADI_WIND NADI_PRES WELLINGTON_LAT WELLINGTON_LON WELLINGTON_WIND WELLINGTON_PRES DS824_LAT DS824_LON DS824_STAGE DS824_WIND DS824_PRES TD9636_LAT TD9636_LON TD9636_STAGE TD9636_WIND TD9636_PRES TD9635_LAT TD9635_LON TD9635_WIND TD9635_PRES TD9635_ROCI NEUMANN_LAT NEUMANN_LON NEUMANN_CLASS NEUMANN_WIND NEUMANN_PRES MLC_LAT MLC_LON MLC_CLASS MLC_WIND MLC_PRES USA_GUST BOM_GUST BOM_GUST_PER REUNION_GUST REUNION_GUST_PER USA_SEAHGT USA_SEARAD_NE USA_SEARAD_SE USA_SEARAD_SW USA_SEARAD_NW STORM_SPEED STORM_DIR
1883245N10328 1883 26 NA NA NOT_NAMED 1883-09-02 00:00:00 TS 9.70000 -32.5000 spur-merge 1625 1590 _____________O -1 9.70000 -32.5000 TD 30 23 280
1883245N10328 1883 26 NA NA NOT_NAMED 1883-09-02 03:00:00 TS 9.90089 -33.6622 spur-merge 1585 1560 _____________P -1 9.90089 -33.6622 TD 30 23 280
1883245N10328 1883 26 NA NA NOT_NAMED 1883-09-02 06:00:00 TS 10.1000 -34.8000 spur-merge 1558 1539 _____________O -1 10.1000 -34.8000 TD 30 22 280
1883245N10328 1883 26 NA NA NOT_NAMED 1883-09-02 09:00:00 TS 10.2995 -35.9002 spur-merge 1540 1529 _____________P -1 10.2995 -35.9002 TD 32 22 280
1883245N10328 1883 26 NA NA NOT_NAMED 1883-09-02 12:00:00 TS 10.5000 -37.0000 spur-merge 1533 1526 _____________O -1 10.5000 -37.0000 TS 35 22 280
1883245N10328 1883 26 NA NA NOT_NAMED 1883-09-02 15:00:00 TS 10.6847 -38.1503 spur-merge 1534 1525 _____________P -1 10.6847 -38.1503 TS 37 23 280
1883245N10328 1883 26 NA NA NOT_NAMED 1883-09-02 18:00:00 TS 10.9000 -39.3000 spur-merge 1515 1437 _____________O -1 10.9000 -39.3000 TS 40 23 283
1883245N10328 1883 26 NA NA NOT_NAMED 1883-09-02 21:00:00 TS 11.1994 -40.3999 spur-merge 1428 1356 _____________P -1 11.1994 -40.3999 TS 42 22 286
1883245N10328 1883 26 NA NA NOT_NAMED 1883-09-03 00:00:00 TS 11.5000 -41.5000 spur-merge 1347 1266 _____________O -1 11.5000 -41.5000 TS 45 23 283
1883245N10328 1883 26 NA NA NOT_NAMED 1883-09-03 03:00:00 TS 11.6997 -42.6505 spur-merge 1258 1193 _____________P -1 11.6997 -42.6505 TS 47 23 280
1883245N10328 1883 26 NA NA NOT_NAMED 1883-09-03 06:00:00 TS 11.9000 -43.8000 spur-merge 1186 1136 _____________O -1 11.9000 -43.8000 TS 50 23 283
1883245N10328 1883 26 NA NA NOT_NAMED 1883-09-03 09:00:00 TS 12.1994 -44.8999 spur-merge 1131 1090 _____________P -1 12.1994 -44.8999 TS 52 22 286
1883245N10328 1883 26 NA NA NOT_NAMED 1883-09-03 12:00:00 TS 12.5000 -46.0000 spur-merge 1087 1034 _____________O -1 12.5000 -46.0000 TS 55 23 283
1883245N10328 1883 26 NA NA NOT_NAMED 1883-09-03 15:00:00 TS 12.7147 -47.1503 spur-merge 1028 988 _____________P -1 12.7147 -47.1503 TS 57 23 280
1883245N10328 1883 26 NA NA NOT_NAMED 1883-09-03 18:00:00 TS 12.9000 -48.3000 spur-merge 983 953 _____________O -1 12.9000 -48.3000 TS 60 22 280
1883245N10328 1883 26 NA NA NOT_NAMED 1883-09-03 21:00:00 TS 13.0993 -49.4002 spur-merge 950 927 _____________P -1 13.0993 -49.4002 TS 65 22 281
1883245N10328 1883 26 NA NA NOT_NAMED 1883-09-04 00:00:00 TS 13.3000 -50.5000 spur-merge 922 897 _____________O -1 13.3000 -50.5000 HU 70 22 281
1883245N10328 1883 26 NA NA NOT_NAMED 1883-09-04 03:00:00 TS 13.5072 -51.6500 spur-merge 894 884 _____________P -1 13.5072 -51.6500 HU 80 23 280
1883245N10328 1883 26 NA NA NOT_NAMED 1883-09-04 06:00:00 TS 13.7000 -52.8000 spur-merge 887 856 _____________O -1 13.7000 -52.8000 HU 90 22 279
1883245N10328 1883 26 NA NA NOT_NAMED 1883-09-04 09:00:00 TS 13.8419 -53.9080 spur-merge 846 758 _____________P -1 13.8419 -53.9080 HU 100 22 278
1883245N10328 1883 26 NA NA NOT_NAMED 1883-09-04 12:00:00 NR 14.0000 -55.0000 spur-merge 749 669 _____________O -1 14.0000 -55.0000 MH 110 22 280
1883245N10328 1883 26 NA NA NOT_NAMED 1883-09-04 15:00:00 NR 14.2346 -56.1075 spur-merge 661 600 _____________P -1 14.2346 -56.1075 MH 110 22 283
1883245N10328 1883 26 NA NA NOT_NAMED 1883-09-04 18:00:00 NR 14.5000 -57.2000 spur-merge 592 541 _____________O -1 14.5000 -57.2000 MH 110 22 284
1883245N10328 1883 26 NA NA NOT_NAMED 1883-09-04 21:00:00 NR 14.7495 -58.2652 spur-merge 535 513 _____________P -1 14.7495 -58.2652 MH 110 21 284
1883245N10328 1883 26 NA NA NOT_NAMED 1883-09-05 00:00:00 NR 15.0000 -59.3000 spur-merge 515 506 _____________O -1 15.0000 -59.3000 MH 110 20 284
1883245N10328 1883 26 NA CS NOT_NAMED 1883-09-05 03:00:00 NR 15.2570 -60.3076 spur-merge 520 516 _____________P -1 15.2570 -60.3076 MH 110 20 285
1883245N10328 1883 26 NA CS NOT_NAMED 1883-09-05 06:00:00 NR 15.5000 -61.3000 spur-merge 537 457 _____________O -1 15.5000 -61.3000 MH 110 981 20 283
1883245N10328 1883 26 NA CS NOT_NAMED 1883-09-05 09:00:00 NR 15.6844 -62.2932 spur-merge 448 362 _____________P -1 15.7110 -62.2972 MH 110 20 282
1883245N10328 1883 26 NA CS NOT_NAMED 1883-09-05 12:00:00 NR 15.9000 -63.3000 spur-merge 354 _____________O -1 15.9000 -63.3000 MH 110 20 283

About IBTrACS Database

This database is a web-friendly format of International Best Track Archive for Climate Stewardship (IBTrACS), a global best track data archive curated by NOAA dating back to 1842.

Updated: 2021-12-01